Aeroporto :
LOGIN :

Iscrizione | Disclaimer

   EN    FR    IT 

 










Sommario :    VFR   VFR Marginale   IFR   IFR Intensivo   IFR Molto Intensivo
Visibilità : 
Base nubi : 
>= 8 km
>= 3000ft
5 / 8 km
1000 / 3000 ft
1500m / 5 km
500 / 1000 ft
800 / 1500m
200 / 500 ft
< 800m
< 200 ft
Simboli :   Temporali  Nebbia  Neve Forte  Precipitazioni Forti  Vento > 20 kt
SIGMETs :   Varie  Temporali  Ghiacco  Turbolenza  Onda orograficha  Ceneri Vulcaniche






- Altitudine del aeroporto : 34 ft
- Codice IATA : BLK


EGNH - Blackpool

ULTIMO METAR :
  • 161220Z 33004KT 290V020 9000 -RADZ FEW005 SCT012 BKN042 16/15 Q1010

METARs OBSOLETI :
  • 161150Z 35008KT 6000 -RADZ SCT008 BKN016 16/14 Q1010
  • 161120Z 34012KT 310V010 9000 -RADZ SCT008 SCT033 16/14 Q1009
  • 161050Z 32011KT 9999 -RADZ SCT009 BKN018 17/15 Q1009
  • 161020Z 31008KT 280V340 9999 -SHRA FEW005 BKN009 17/16 Q1009
  • 160950Z 29008KT 9999 -SHRA SCT007 17/16 Q1008
  • 160920Z 30007KT 9999 FEW012 17/15 Q1008
  • 160850Z 32005KT 9999 FEW012 18/15 Q1008
  • 160820Z 34004KT 310V010 9999 FEW012 17/14 Q1008
  • 160750Z 34005KT 9999 FEW008 17/15 Q1007
  • 160720Z 35003KT 320V020 9999 FEW008 SCT049 17/14 Q1007

TAF TAF EGNH
Valido dal 16 a 12 ore il 16 a 20 ore UTC


161101Z 1612/1620 30012KT 9999 SCT035
TEMPO 1612/1616 BKN012
PROB30
TEMPO 1612/1615 6000 SHRA BKN008
ATIS : +44 1253 343 434 (x8315)



MetMap, La meteo Aeronautica in un colpo d'occhio ! - Copyright ORBIFLY Dicembre 2007 - Disclaimer

ORBIFLY MET'MAP TEAM :

Programmazione e sviluppo : Alexandra Zaïnal
Concezione : Baudouin d'Aumeries
Supporto tecnico e logistico : Manuel Goepfert
Aiuto : Marc-Olivier Méhu
Aiuto per la traduzione : Arnaldo La Scala




FONTI E CREDITI :

   NOAA